Flight Track Log - Related Links

Times and Time Zones

All times are in EDT time to prevent confusion due to time zone crossing. See the AMX205 flight status page for this flight to view local times or setup timezone preferences in your user account.

Time Position Orientation Groundspeed Altitude Reporting Facility
EDT Latitude Longitude Course Direction KTS MPH feet Rate Location/Type
Tue 07:31:00 AM 25.1401 -103.0915 146° Southeast  Level Estimated
Tue 07:32:00 AM 25.0544 -103.0279 146° Southeast  Level Estimated
Tue 07:33:00 AM 24.9687 -102.9645 146° Southeast  Level Estimated
Tue 07:34:00 AM 24.8829 -102.9011 146° Southeast  Level Estimated
Tue 07:35:00 AM 24.7971 -102.8378 146° Southeast  Level Estimated
Tue 07:36:00 AM 24.7113 -102.7747 146° Southeast  Level Estimated
Tue 07:37:00 AM 24.6254 -102.7115 146° Southeast  Level Estimated
Tue 07:38:00 AM 24.5396 -102.6485 146° Southeast  Level Estimated
Tue 07:39:00 AM 24.4537 -102.5856 146° Southeast  Level Estimated
Tue 07:40:00 AM 24.3677 -102.5227 146° Southeast  Level Estimated
Tue 07:41:00 AM 24.2818 -102.4600 146° Southeast  Level Estimated
Tue 07:42:00 AM 24.1958 -102.3973 146° Southeast  Level Estimated
Tue 07:43:00 AM 24.1098 -102.3347 146° Southeast  Level Estimated
Tue 07:44:00 AM 24.0238 -102.2722 146° Southeast  Level Estimated
Tue 07:45:00 AM 23.9377 -102.2098 146° Southeast  Level Estimated
Tue 07:46:00 AM 23.8517 -102.1474 146° Southeast  Level Estimated
Tue 07:47:00 AM 23.7656 -102.0852 147° Southeast  Level Estimated
Tue 07:48:00 AM 23.6794 -102.0230 147° Southeast  Level Estimated
Tue 07:49:00 AM 23.5933 -101.9609 147° Southeast  Level Estimated
Tue 07:50:00 AM 23.5071 -101.8989 147° Southeast  Level Estimated
Tue 07:51:00 AM 23.4209 -101.8370 147° Southeast  Level Estimated
Tue 07:52:00 AM 23.3347 -101.7751 147° Southeast  Level Estimated
Tue 07:53:00 AM 23.2484 -101.7133 147° Southeast  Level Estimated
Tue 07:54:00 AM 23.1621 -101.6516 147° Southeast  Level Estimated
Tue 07:55:00 AM 23.0758 -101.5900 147° Southeast  Level Estimated
Tue 07:56:00 AM 22.9895 -101.5285 147° Southeast  Level Estimated
Tue 07:57:00 AM 22.9032 -101.4670 147° Southeast  Level Estimated
Tue 07:58:00 AM 22.8168 -101.4057 147° Southeast  Level Estimated
Tue 07:59:00 AM 22.7304 -101.3444 147° Southeast  Level Estimated
Tue 08:00:00 AM 22.6440 -101.2831 147° Southeast  Level Estimated
Tue 08:01:00 AM 22.5576 -101.2220 147° Southeast  Level Estimated
Tue 08:02:00 AM 22.4711 -101.1609 147° Southeast  Level Estimated
Tue 08:03:00 AM 22.3846 -101.0999 147° Southeast  Level Estimated
Tue 08:04:00 AM 22.2981 -101.0390 147° Southeast  Level Estimated
Tue 08:05:00 AM 22.2116 -100.9782 147° Southeast  Level Estimated
Tue 08:06:00 AM 22.1250 -100.9174 147° Southeast  Level Estimated
Tue 08:07:00 AM 22.0384 -100.8567 147° Southeast  Level Estimated
Tue 08:08:00 AM 21.9518 -100.7961 147° Southeast  Level Estimated
Tue 08:09:00 AM 21.8652 -100.7355 147° Southeast  Level Estimated
Tue 08:10:00 AM 21.7786 -100.6751 147° Southeast  Level Estimated
Tue 08:11:00 AM 21.6919 -100.6147 147° Southeast  Level Estimated
Tue 08:12:00 AM 21.6052 -100.5544 147° Southeast  Level Estimated
Tue 08:13:00 AM 21.5185 -100.4941 147° Southeast  Level Estimated
Tue 08:14:00 AM 21.4318 -100.4339 147° Southeast  Level Estimated
Tue 08:15:00 AM 21.3450 -100.3738 147° Southeast  Level Estimated
Tue 08:16:00 AM 21.2582 -100.3138 147° Southeast  Level Estimated
Tue 08:17:00 AM 21.1715 -100.2538 147° Southeast  Level Estimated
Tue 08:18:00 AM 21.0846 -100.1939 147° Southeast  Level Estimated
Tue 08:19:00 AM 20.9978 -100.1341 147° Southeast  Level Estimated
Tue 08:20:00 AM 20.9109 -100.0743 147° Southeast  Level Estimated
Tue 08:21:00 AM 20.8241 -100.0146 147° Southeast  Level Estimated
Tue 08:22:00 AM 20.7372 -99.9550 147° Southeast  Level Estimated
Tue 08:23:00 AM 20.6502 -99.8954 147° Southeast  Level Estimated
Tue 08:24:00 AM 20.5633 -99.8360 147° Southeast  Level Estimated
Tue 08:25:00 AM 20.4763 -99.7766 147° Southeast  Level Estimated
Tue 08:26:00 AM 20.3894 -99.7172 147° Southeast  Level Estimated
Tue 08:27:00 AM 20.3024 -99.6579 147° Southeast  Level Estimated
Tue 08:28:00 AM 20.2153 -99.5987 147° Southeast  Level Estimated
Tue 08:29:00 AM 20.1283 -99.5396 147° Southeast  Level Estimated
Tue 08:30:00 AM 20.0412 -99.4805 147° Southeast  Level Estimated
Tue 08:31:00 AM 19.9542 -99.4215 147° Southeast  Level Estimated
Tue 08:32:00 AM 19.8671 -99.3625 148° Southeast  Level Estimated
Tue 08:33:00 AM 19.7799 -99.3036 148° Southeast  Level Estimated
Tue 08:34:00 AM 19.6928 -99.2448 148° Southeast  Level Estimated
Tue 08:35:00 AM 19.6056 -99.1860 148° Southeast  Level Estimated
Tue 08:36:00 AM 19.5185 -99.1273 148° Southeast  Level Estimated
Tue 08:37:00 AM 19.4363 -99.0721 148° Southeast  Level Estimated
Tue 08:38:00 AM 19.4363 -99.0721 43° Northeast  Level Estimated
Tue 08:39:00 AM 19.4363 -99.0721 43° Northeast  Level Estimated
Tue 08:40:00 AM 19.4363 -99.0721 43° Northeast  Level Estimated
Tue 08:41:00 AM 19.4363 -99.0721 43° Northeast  Level Estimated
Tue 08:42:00 AM 19.4363 -99.0721 43° Northeast  Level Estimated
Tue 08:43:00 AM 19.4363 -99.0721 43° Northeast  Level Estimated
Tue 08:44:00 AM 19.4363 -99.0721 43° Northeast  Level Estimated
Tue 08:45:00 AM 19.4363 -99.0721 43° Northeast  Level Estimated
Tue 08:46:00 AM 19.4363 -99.0721 43° Northeast  Level Estimated
Tue 08:47:00 AM 19.4363 -99.0721 43° Northeast  Level Estimated
Tue 08:48:00 AM 19.4363 -99.0721 43° Northeast  Level Estimated
Tue 08:49:00 AM 19.4363 -99.0721 43° Northeast  Level Estimated
Tue 08:50:00 AM 19.4363 -99.0721 43° Northeast  Level Estimated
Tue 08:51:00 AM 19.4363 -99.0721 43° Northeast  Level Estimated
Tue 08:52:00 AM 19.4363 -99.0721 43° Northeast  Level Estimated
Tue 08:53:00 AM 19.4363 -99.0721 43° Northeast  Level Estimated

Login

Don't have an account? Register now (free) for customized features, flight alerts, and more!